Time;durP1;ratioP1;P1;durP2;ratioP2;P2;SDS_P1;SDS_P2;PMS_P1;PMS_P2;Temp;Humidity;BMP_temperature;BMP_pressure;BME280_temperature;BME280_humidity;BME280_pressure;Samples;Min_cycle;Max_cycle;Signal;HPM_P1;HPM_P2
2021/06/26 00:01:16;;;;;;;22.40;6.18;;;;;;;9.72;90.17;99943.25;4898136;29;20097;-64
2021/06/26 00:03:42;;;;;;;23.85;6.30;;;;;;;9.74;90.85;99943.84;4898487;29;20487;-64
2021/06/26 00:06:07;;;;;;;20.05;6.50;;;;;;;9.72;90.67;99943.25;4895919;29;20072;-64
2021/06/26 00:08:34;;;;;;;25.77;6.90;;;;;;;9.75;90.67;99933.91;4899411;29;20529;-64
2021/06/26 00:11:00;;;;;;;18.88;6.53;;;;;;;9.77;90.73;99938.00;4891262;29;20032;-65
2021/06/26 00:13:26;;;;;;;19.23;6.65;;;;;;;9.79;91.02;99932.38;4883811;29;20131;-64
2021/06/26 00:15:52;;;;;;;17.33;6.45;;;;;;;9.80;90.36;99928.66;4896154;29;20513;-64
2021/06/26 00:18:18;;;;;;;24.63;6.70;;;;;;;9.72;90.85;99935.19;4896136;29;20044;-64
2021/06/26 00:20:45;;;;;;;17.42;7.38;;;;;;;9.79;90.93;99935.88;4892371;29;20029;-64
2021/06/26 00:23:11;;;;;;;22.42;7.95;;;;;;;9.79;90.45;99940.47;4895496;29;20036;-65
2021/06/26 00:25:38;;;;;;;18.38;7.15;;;;;;;9.82;90.33;99938.09;4890064;29;20521;-64
2021/06/26 00:28:03;;;;;;;20.25;6.95;;;;;;;9.86;90.33;99940.34;4883502;29;20136;-64
2021/06/26 00:30:29;;;;;;;18.77;7.35;;;;;;;9.82;89.99;99946.19;4897228;29;20127;-64
2021/06/26 00:32:55;;;;;;;16.17;7.18;;;;;;;9.79;90.53;99941.25;4888367;29;20037;-64
2021/06/26 00:35:21;;;;;;;16.13;7.30;;;;;;;9.82;89.90;99948.06;4891480;29;21184;-64
2021/06/26 00:37:46;;;;;;;18.40;8.02;;;;;;;9.83;90.35;99952.41;4897802;29;20568;-63
2021/06/26 00:40:13;;;;;;;15.88;7.25;;;;;;;9.84;89.90;99945.97;4888526;29;20558;-63
2021/06/26 00:42:43;;;;;;;18.30;6.95;;;;;;;9.82;90.09;99948.88;4896060;29;20434;-63
2021/06/26 00:45:11;;;;;;;15.23;7.45;;;;;;;9.86;90.29;99951.94;4901353;29;20052;-63
2021/06/26 00:47:37;;;;;;;19.55;7.88;;;;;;;9.84;90.07;99951.34;4894442;29;20037;-63
2021/06/26 00:50:12;;;;;;;17.98;8.13;;;;;;;9.87;90.36;99945.50;4895201;29;20128;-63
2021/06/26 00:52:37;;;;;;;18.88;7.90;;;;;;;9.78;90.45;99952.28;4895028;29;20055;-63
2021/06/26 00:55:04;;;;;;;19.73;7.70;;;;;;;9.82;90.09;99945.38;4898544;29;20661;-63
2021/06/26 00:57:33;;;;;;;15.70;8.45;;;;;;;9.78;90.93;99949.59;4891698;29;20040;-63
2021/06/26 00:59:59;;;;;;;17.73;8.38;;;;;;;9.85;90.90;99944.91;4898263;29;20040;-63
2021/06/26 01:02:25;;;;;;;15.70;7.47;;;;;;;9.80;90.55;99955.56;4897620;29;20052;-63
2021/06/26 01:04:51;;;;;;;17.08;7.85;;;;;;;9.80;90.99;99955.56;4890508;29;20040;-63
2021/06/26 01:07:17;;;;;;;18.05;7.90;;;;;;;9.80;91.06;99961.72;4893283;29;20123;-64
2021/06/26 01:09:42;;;;;;;16.42;7.50;;;;;;;9.82;90.55;99948.88;4897878;29;20632;-64
2021/06/26 01:12:08;;;;;;;16.48;7.85;;;;;;;9.85;90.80;99960.22;4889269;29;20048;-64
2021/06/26 01:14:34;;;;;;;17.25;8.80;;;;;;;9.90;89.98;99957.66;4898086;29;20044;-63
2021/06/26 01:17:05;;;;;;;18.75;8.07;;;;;;;9.87;90.42;99952.72;4895989;29;20032;-63
2021/06/26 01:19:30;;;;;;;17.60;8.10;;;;;;;9.86;90.66;99961.84;4892344;29;20040;-64
2021/06/26 01:21:59;;;;;;;17.77;8.65;;;;;;;9.83;91.07;99960.47;4894399;29;20033;-63
2021/06/26 01:24:24;;;;;;;21.20;7.93;;;;;;;9.80;90.71;99960.94;4895521;29;20096;-64
2021/06/26 01:26:57;;;;;;;23.67;9.15;;;;;;;9.79;91.01;99964.66;4896962;29;20033;-63
2021/06/26 01:29:23;;;;;;;18.07;9.50;;;;;;;9.80;91.13;99961.72;4896799;29;20458;-63
2021/06/26 01:31:49;;;;;;;15.95;9.00;;;;;;;9.85;90.99;99968.28;4892629;29;20602;-63
2021/06/26 01:34:14;;;;;;;19.05;8.63;;;;;;;9.88;90.42;99965.13;4897498;29;20064;-63
2021/06/26 01:36:40;;;;;;;13.48;8.27;;;;;;;9.87;91.11;99967.03;4892397;29;20203;-64
2021/06/26 01:39:06;;;;;;;15.18;8.05;;;;;;;9.88;91.45;99965.97;4897222;29;20040;-64
2021/06/26 01:41:34;;;;;;;14.73;8.27;;;;;;;9.82;91.30;99964.22;4884882;29;20044;-64
2021/06/26 01:44:00;;;;;;;19.67;8.55;;;;;;;9.86;91.60;99953.78;4897001;29;20127;-63
2021/06/26 01:46:26;;;;;;;15.65;8.95;;;;;;;9.85;91.55;99960.22;4895999;29;20050;-63
2021/06/26 01:48:52;;;;;;;14.98;8.70;;;;;;;9.82;91.94;99958.81;4887078;29;20491;-64
2021/06/26 01:51:17;;;;;;;13.30;8.07;;;;;;;9.79;91.52;99960.09;4883255;29;20124;-64
2021/06/26 01:53:43;;;;;;;17.00;8.13;;;;;;;9.84;91.57;99964.78;4875634;29;21330;-64
2021/06/26 01:56:12;;;;;;;20.27;8.95;;;;;;;9.78;91.94;99963.84;4890274;29;20550;-63
2021/06/26 01:58:38;;;;;;;20.40;8.77;;;;;;;9.85;90.70;99962.91;4885004;29;20041;-64
2021/06/26 02:01:04;;;;;;;13.88;8.02;;;;;;;9.83;91.17;99963.16;4890922;29;20088;-64
2021/06/26 02:03:29;;;;;;;20.23;8.75;;;;;;;9.81;91.21;99962.56;4895645;29;20656;-63
2021/06/26 02:05:55;;;;;;;13.90;8.65;;;;;;;9.87;91.84;99967.03;4892403;29;20040;-64
2021/06/26 02:08:20;;;;;;;13.10;8.50;;;;;;;9.92;91.76;99971.69;4890392;29;20044;-64
2021/06/26 02:10:46;;;;;;;13.88;8.60;;;;;;;9.90;91.19;99971.94;4897068;29;20063;-64
2021/06/26 02:13:12;;;;;;;14.20;7.93;;;;;;;9.84;91.57;99969.34;4884289;29;20063;-64
2021/06/26 02:15:37;;;;;;;14.98;8.65;;;;;;;9.83;91.61;99960.47;4894051;29;20036;-65
2021/06/26 02:18:04;;;;;;;11.60;8.25;;;;;;;9.80;91.41;99969.00;4896459;29;20048;-65
2021/06/26 02:20:30;;;;;;;14.18;9.30;;;;;;;9.93;91.74;99965.25;4885215;29;20052;-65
2021/06/26 02:22:55;;;;;;;13.73;8.10;;;;;;;9.85;91.34;99966.44;4897175;29;20033;-65
2021/06/26 02:25:21;;;;;;;12.02;7.75;;;;;;;9.88;91.81;99976.72;4893075;29;20070;-64
2021/06/26 02:27:47;;;;;;;14.73;8.25;;;;;;;9.88;92.08;99971.34;4896771;29;20044;-64
2021/06/26 02:30:13;;;;;;;13.82;8.32;;;;;;;9.80;91.96;99971.69;4888828;29;20096;-64
2021/06/26 02:32:39;;;;;;;14.05;8.32;;;;;;;9.81;91.50;99974.13;4892329;29;20036;-64
2021/06/26 02:35:06;;;;;;;12.85;8.52;;;;;;;9.84;92.00;99969.34;4896701;29;20112;-64
2021/06/26 02:37:32;;;;;;;15.63;7.93;;;;;;;9.91;92.30;99970.06;4884382;29;20044;-64
2021/06/26 02:39:59;;;;;;;17.05;8.98;;;;;;;9.94;91.55;99967.72;4896511;29;20115;-63
2021/06/26 02:42:25;;;;;;;11.10;8.80;;;;;;;9.96;91.78;99967.47;4893430;29;20036;-64
2021/06/26 02:44:51;;;;;;;13.02;8.48;;;;;;;9.89;91.61;99966.78;4889435;29;20044;-64
2021/06/26 02:47:18;;;;;;;14.10;9.55;;;;;;;9.90;91.46;99960.34;4889409;29;20037;-64
2021/06/26 02:49:44;;;;;;;15.50;9.10;;;;;;;9.81;92.12;99958.00;4886834;29;20063;-64
2021/06/26 02:52:10;;;;;;;17.38;8.73;;;;;;;9.81;91.69;99960.69;4894768;29;20041;-64
2021/06/26 02:54:36;;;;;;;13.15;8.70;;;;;;;9.92;91.88;99958.25;4896731;29;20040;-64
2021/06/26 02:57:02;;;;;;;15.55;8.98;;;;;;;9.87;91.20;99967.03;4891156;29;20479;-64
2021/06/26 02:59:28;;;;;;;16.00;8.77;;;;;;;9.92;91.92;99975.22;4896408;29;20047;-64
2021/06/26 03:01:53;;;;;;;13.70;7.90;;;;;;;9.91;91.08;99970.06;4896224;29;20418;-64
2021/06/26 03:04:19;;;;;;;16.67;9.20;;;;;;;9.93;91.14;99962.56;4890021;29;20197;-64
2021/06/26 03:06:45;;;;;;;15.55;9.25;;;;;;;9.88;91.58;99960.59;4887955;29;20112;-64
2021/06/26 03:09:11;;;;;;;15.02;8.95;;;;;;;9.91;92.04;99964.66;4895140;29;20498;-64
2021/06/26 03:11:37;;;;;;;14.18;9.38;;;;;;;9.90;91.31;99960.34;4884186;29;20032;-64
2021/06/26 03:14:03;;;;;;;13.85;8.70;;;;;;;9.95;91.18;99963.97;4896688;29;20633;-64
2021/06/26 03:16:29;;;;;;;14.13;8.70;;;;;;;9.95;91.29;99957.78;4891301;29;20352;-64
2021/06/26 03:18:55;;;;;;;13.52;9.40;;;;;;;9.88;91.90;99968.66;4886373;29;20088;-63
2021/06/26 03:21:20;;;;;;;14.02;8.85;;;;;;;9.89;91.24;99970.28;4896104;29;20083;-64
2021/06/26 03:23:46;;;;;;;15.65;9.30;;;;;;;9.94;91.11;99974.97;4892107;29;20044;-64
2021/06/26 03:26:12;;;;;;;18.95;9.32;;;;;;;9.93;91.49;99965.25;4883482;29;20037;-64
2021/06/26 03:28:38;;;;;;;12.73;8.20;;;;;;;10.01;91.25;99964.09;4895940;29;20044;-64
2021/06/26 03:31:05;;;;;;;16.38;9.05;;;;;;;9.98;91.63;99962.69;4893300;29;20637;-64
2021/06/26 03:33:31;;;;;;;16.27;9.00;;;;;;;9.95;92.08;99963.97;4899828;29;20052;-64
2021/06/26 03:35:56;;;;;;;12.73;8.85;;;;;;;9.86;91.66;99964.53;4887644;29;20037;-64
2021/06/26 03:38:22;;;;;;;14.27;8.57;;;;;;;9.80;91.97;99961.72;4894882;29;20033;-64
2021/06/26 03:40:49;;;;;;;14.10;9.35;;;;;;;9.85;91.70;99957.53;4899155;29;20044;-64
2021/06/26 03:43:15;;;;;;;13.80;8.75;;;;;;;9.86;92.03;99961.84;4895286;29;20033;-64
2021/06/26 03:45:41;;;;;;;15.98;9.10;;;;;;;9.80;91.87;99958.25;4899971;29;20081;-64
2021/06/26 03:48:07;;;;;;;13.90;9.52;;;;;;;9.81;92.33;99960.69;4886622;29;20447;-64
2021/06/26 03:50:34;;;;;;;14.82;9.15;;;;;;;9.78;91.67;99955.75;4893451;29;20053;-64
2021/06/26 03:52:59;;;;;;;15.65;9.68;;;;;;;9.78;91.96;99963.03;4893844;29;20037;-64
2021/06/26 03:55:25;;;;;;;14.55;9.75;;;;;;;9.73;92.18;99963.72;4895214;29;20491;-64
2021/06/26 03:57:51;;;;;;;14.50;9.20;;;;;;;9.74;92.12;99959.16;4893977;29;20053;-64
2021/06/26 04:00:17;;;;;;;11.48;8.80;;;;;;;9.77;92.70;99962.19;4898923;29;20037;-64
2021/06/26 04:02:42;;;;;;;11.93;9.05;;;;;;;9.81;91.64;99960.69;4884362;29;20148;-64
2021/06/26 04:05:08;;;;;;;14.27;8.77;;;;;;;9.83;92.26;99960.47;4899729;29;20048;-64
2021/06/26 04:07:34;;;;;;;14.63;8.55;;;;;;;9.80;91.70;99960.94;4896271;29;20086;-64
2021/06/26 04:10:00;;;;;;;15.07;9.43;;;;;;;9.74;92.46;99962.66;4899335;29;20494;-64
2021/06/26 04:12:25;;;;;;;12.82;8.80;;;;;;;9.78;92.23;99961.16;4896427;29;20083;-64
2021/06/26 04:14:51;;;;;;;12.40;8.80;;;;;;;9.78;92.18;99957.66;4898781;29;20048;-64
2021/06/26 04:17:16;;;;;;;13.10;9.88;;;;;;;9.78;92.36;99963.03;4889768;29;20036;-64
2021/06/26 04:19:42;;;;;;;15.05;9.38;;;;;;;9.83;91.96;99965.84;4890571;29;20490;-64
2021/06/26 04:22:08;;;;;;;17.35;9.65;;;;;;;9.82;92.26;99961.53;4894240;29;20567;-65
2021/06/26 04:24:33;;;;;;;12.20;9.25;;;;;;;9.82;92.29;99965.00;4899038;29;20040;-64
2021/06/26 04:26:59;;;;;;;13.80;9.00;;;;;;;9.88;91.75;99970.50;4893171;29;20537;-64
2021/06/26 04:29:25;;;;;;;14.10;9.77;;;;;;;9.90;91.58;99971.09;4898821;29;20041;-64
2021/06/26 04:31:51;;;;;;;11.32;9.05;;;;;;;9.84;91.94;99969.34;4898608;29;20043;-64
2021/06/26 04:34:17;;;;;;;13.15;8.68;;;;;;;9.93;91.62;99962.56;4886985;29;20037;-65
2021/06/26 04:36:43;;;;;;;15.95;9.38;;;;;;;9.99;91.50;99961.63;4889570;29;20072;-63
2021/06/26 04:39:09;;;;;;;12.98;8.52;;;;;;;10.04;91.52;99960.94;4887964;29;20048;-64
2021/06/26 04:41:35;;;;;;;13.45;7.93;;;;;;;10.11;90.72;99969.72;4897097;29;20070;-64
2021/06/26 04:44:02;;;;;;;10.75;8.57;;;;;;;10.04;91.46;99971.72;4892356;29;20204;-64
2021/06/26 04:46:28;;;;;;;11.32;8.13;;;;;;;10.06;91.44;99972.28;4895530;29;20494;-64
2021/06/26 04:48:54;;;;;;;11.88;8.60;;;;;;;10.09;91.34;99978.00;4892070;29;20040;-64
2021/06/26 04:51:19;;;;;;;21.27;9.15;;;;;;;10.15;90.78;99976.28;4898920;29;20495;-64
2021/06/26 04:53:45;;;;;;;15.43;8.40;;;;;;;10.08;91.20;99981.75;4887092;29;20511;-64
2021/06/26 04:56:11;;;;;;;12.02;8.68;;;;;;;10.15;90.79;99976.28;4890713;29;20040;-64
2021/06/26 04:58:37;;;;;;;12.07;9.77;;;;;;;10.17;90.34;99974.16;4888760;29;20096;-64
2021/06/26 05:01:02;;;;;;;13.32;8.57;;;;;;;10.23;89.97;99978.63;4898083;29;20040;-64
2021/06/26 05:03:28;;;;;;;11.85;8.38;;;;;;;10.25;89.90;99976.50;4890675;29;20070;-64
2021/06/26 05:05:55;;;;;;;9.40;8.07;;;;;;;10.33;89.48;99972.63;4893838;29;20033;-64
2021/06/26 05:08:21;;;;;;;8.93;7.63;;;;;;;10.34;89.87;99966.19;4898106;29;20044;-64
2021/06/26 05:10:48;;;;;;;7.28;6.57;;;;;;;10.43;89.70;99966.69;4891332;29;20079;-64
2021/06/26 05:13:13;;;;;;;7.97;6.10;;;;;;;10.47;89.61;99967.03;4898323;29;20041;-64
2021/06/26 05:15:41;;;;;;;9.80;6.85;;;;;;;10.56;89.09;99971.00;4891490;29;20037;-63
2021/06/26 05:18:07;;;;;;;9.13;6.30;;;;;;;10.54;88.87;99978.50;4892318;29;20041;-64
2021/06/26 05:20:33;;;;;;;9.10;6.57;;;;;;;10.52;89.25;99973.34;4888797;29;20109;-64
2021/06/26 05:22:59;;;;;;;12.65;6.43;;;;;;;10.54;89.59;99983.88;4891179;29;20036;-65
2021/06/26 05:25:25;;;;;;;9.63;6.60;;;;;;;10.67;88.28;99978.25;4894937;29;20412;-64
2021/06/26 05:27:50;;;;;;;7.60;6.47;;;;;;;10.67;88.42;99978.25;4893863;29;20040;-64
2021/06/26 05:30:16;;;;;;;7.45;5.75;;;;;;;10.78;88.38;99990.06;4897962;29;20042;-64
2021/06/26 05:32:42;;;;;;;6.93;5.47;;;;;;;10.68;88.27;99981.75;4895488;29;20032;-64
2021/06/26 05:35:08;;;;;;;7.22;6.00;;;;;;;10.79;87.07;99997.06;4885308;29;20032;-64
2021/06/26 05:37:34;;;;;;;12.13;5.78;;;;;;;10.74;87.70;99999.66;4896670;29;20037;-64
2021/06/26 05:39:59;;;;;;;7.30;5.30;;;;;;;10.87;87.01;100005.84;4896582;29;20064;-64
2021/06/26 05:42:25;;;;;;;8.52;5.80;;;;;;;10.71;87.50;100010.09;4896318;29;20029;-64
2021/06/26 05:44:51;;;;;;;8.63;7.00;;;;;;;10.61;87.77;99998.06;4896741;29;20089;-64
2021/06/26 05:47:16;;;;;;;12.63;7.47;;;;;;;10.59;88.09;100000.16;4895211;29;20136;-63
2021/06/26 05:49:42;;;;;;;8.55;6.50;;;;;;;10.69;87.55;100003.09;4895394;29;20032;-64
2021/06/26 05:52:08;;;;;;;12.05;6.30;;;;;;;10.67;87.90;99999.81;4888637;29;20041;-67
2021/06/26 05:54:34;;;;;;;11.40;7.57;;;;;;;10.80;87.77;100003.31;4894977;29;20562;-67
2021/06/26 05:57:01;;;;;;;10.50;7.20;;;;;;;10.82;87.72;100009.28;4885932;29;20036;-67
2021/06/26 05:59:27;;;;;;;13.30;6.10;;;;;;;10.87;86.36;100005.84;4896726;29;20037;-67
2021/06/26 06:01:53;;;;;;;10.02;6.03;;;;;;;10.90;86.86;100010.75;4896226;29;20100;-68
2021/06/26 06:04:19;;;;;;;10.40;6.13;;;;;;;10.95;86.86;100010.88;4887880;29;20048;-67
2021/06/26 06:06:45;;;;;;;7.70;5.78;;;;;;;10.94;87.08;100025.41;4894485;29;20108;-67
2021/06/26 06:09:10;;;;;;;11.00;5.50;;;;;;;11.13;85.69;100028.75;4875655;29;20380;-68
2021/06/26 06:11:36;;;;;;;10.43;5.53;;;;;;;11.15;85.78;100029.34;4887687;29;20520;-67
2021/06/26 06:14:02;;;;;;;7.05;5.50;;;;;;;11.17;86.12;100024.53;4894799;29;20036;-68
2021/06/26 06:16:28;;;;;;;11.18;5.03;;;;;;;11.22;85.34;100029.19;4894791;29;20195;-68
2021/06/26 06:18:54;;;;;;;6.63;4.85;;;;;;;11.28;85.40;100030.91;4895489;29;20115;-68
2021/06/26 06:21:20;;;;;;;17.00;5.30;;;;;;;11.22;84.73;100031.88;4894787;29;20067;-68
2021/06/26 06:23:45;;;;;;;6.85;4.60;;;;;;;11.34;83.91;100029.97;4895613;29;20543;-67
2021/06/26 06:26:11;;;;;;;10.43;4.75;;;;;;;11.21;83.91;100033.78;4893220;29;20051;-67
2021/06/26 06:28:37;;;;;;;9.02;4.60;;;;;;;11.26;84.26;100035.72;4889336;29;20104;-67
2021/06/26 06:31:03;;;;;;;5.75;3.88;;;;;;;11.17;84.86;100034.47;4894645;29;20032;-66
2021/06/26 06:33:29;;;;;;;7.45;4.05;;;;;;;11.31;84.43;100038.53;4560978;29;10000856;-67
2021/06/26 06:35:55;;;;;;;6.78;4.55;;;;;;;11.33;83.76;100043.69;4891500;29;20273;-67
2021/06/26 06:38:21;;;;;;;8.00;3.90;;;;;;;11.39;83.70;100040.84;4875274;29;20687;-67
2021/06/26 06:40:47;;;;;;;7.05;4.22;;;;;;;11.55;83.39;100046.56;4890338;29;20044;-65
2021/06/26 06:43:12;;;;;;;5.75;4.00;;;;;;;11.61;83.18;100042.06;4893522;29;20045;-65
2021/06/26 06:45:38;;;;;;;5.68;3.50;;;;;;;11.63;82.98;100046.16;4884165;29;20542;-64
2021/06/26 06:48:04;;;;;;;5.85;3.42;;;;;;;11.62;82.60;100047.22;4891202;29;20128;-66
2021/06/26 06:50:32;;;;;;;6.60;3.28;;;;;;;11.67;82.72;100041.91;4888418;29;20092;-66
2021/06/26 06:53:01;;;;;;;9.35;3.13;;;;;;;11.90;81.34;100036.63;4888822;29;20036;-65
2021/06/26 06:55:28;;;;;;;5.50;3.55;;;;;;;11.88;80.75;100036.88;4889933;29;20402;-65
2021/06/26 06:57:54;;;;;;;4.93;3.47;;;;;;;11.89;80.69;100037.69;4887309;29;20048;-65
2021/06/26 07:00:20;;;;;;;5.57;2.90;;;;;;;12.11;80.63;100037.81;4890548;29;20042;-65
2021/06/26 07:02:45;;;;;;;5.22;3.17;;;;;;;12.33;79.60;100043.28;4888746;29;20459;-66
2021/06/26 07:05:11;;;;;;;3.10;2.72;;;;;;;12.51;78.45;100047.59;4893043;29;20041;-66
2021/06/26 07:07:37;;;;;;;3.80;3.00;;;;;;;12.53;78.11;100044.66;4889506;29;20100;-66
2021/06/26 07:10:06;;;;;;;3.97;2.72;;;;;;;12.51;77.95;100044.09;4892014;29;20040;-65
2021/06/26 07:12:32;;;;;;;5.35;2.70;;;;;;;12.44;78.47;100038.84;4889737;29;20096;-65
2021/06/26 07:14:58;;;;;;;5.07;2.67;;;;;;;12.43;79.31;100051.56;4883949;29;20040;-66
2021/06/26 07:17:23;;;;;;;6.97;2.70;;;;;;;12.46;78.72;100050.22;4889888;29;20509;-66
2021/06/26 07:19:49;;;;;;;2.05;1.40;;;;;;;12.30;76.62;100057.28;4879941;29;20037;-66
2021/06/26 07:22:15;;;;;;;1.60;1.50;;;;;;;12.39;76.67;100047.72;4890205;29;20927;-64
2021/06/26 07:24:42;;;;;;;5.45;2.28;;;;;;;12.61;77.27;100046.94;4888851;29;20060;-64
2021/06/26 07:27:08;;;;;;;2.28;1.98;;;;;;;12.66;76.83;100043.47;4888540;29;20041;-65
2021/06/26 07:29:34;;;;;;;2.25;1.60;;;;;;;12.66;76.11;100040.78;4883880;29;20032;-64
2021/06/26 07:32:00;;;;;;;5.43;1.70;;;;;;;12.51;75.14;100050.31;4876878;29;20107;-64
2021/06/26 07:34:26;;;;;;;3.40;1.85;;;;;;;12.39;76.83;100049.59;4892287;29;20495;-64
2021/06/26 07:36:52;;;;;;;6.57;1.95;;;;;;;12.11;76.55;100046.72;4884034;29;20062;-64
2021/06/26 07:39:18;;;;;;;3.53;1.20;;;;;;;12.36;74.38;100047.38;4892267;29;20483;-64
2021/06/26 07:41:43;;;;;;;3.33;1.70;;;;;;;12.37;76.57;100044.44;4887026;29;20045;-65
2021/06/26 07:44:09;;;;;;;4.63;1.70;;;;;;;12.36;75.84;100040.06;4887396;29;20053;-64
2021/06/26 07:46:34;;;;;;;6.28;1.88;;;;;;;12.12;77.11;100034.06;4889406;29;20051;-64
2021/06/26 07:49:00;;;;;;;2.22;1.73;;;;;;;12.24;74.87;100037.47;4888630;29;20033;-65
2021/06/26 07:51:26;;;;;;;4.57;2.20;;;;;;;12.32;76.23;100040.84;4897473;29;20107;-65
2021/06/26 07:53:51;;;;;;;2.75;1.92;;;;;;;12.33;75.88;100040.56;4888168;29;20451;-64
2021/06/26 07:56:17;;;;;;;3.70;2.25;;;;;;;12.52;74.70;100040.34;4881081;29;20136;-65
2021/06/26 07:58:43;;;;;;;4.03;2.20;;;;;;;12.49;75.67;100038.13;4888326;29;20064;-64
2021/06/26 08:01:08;;;;;;;2.47;1.73;;;;;;;12.46;75.61;100044.81;4882706;29;20076;-64
2021/06/26 08:03:34;;;;;;;2.13;1.60;;;;;;;12.58;74.63;100042.84;4892580;29;20129;-65
2021/06/26 08:05:59;;;;;;;1.98;1.48;;;;;;;12.49;75.96;100048.94;4877781;29;20708;-65
2021/06/26 08:08:25;;;;;;;3.00;1.50;;;;;;;12.61;76.32;100051.50;4887583;29;20128;-65
2021/06/26 08:10:51;;;;;;;3.28;1.45;;;;;;;12.61;74.72;100055.06;4892487;29;20068;-65
2021/06/26 08:13:17;;;;;;;5.57;1.80;;;;;;;12.53;75.89;100050.88;4892757;29;20517;-65
2021/06/26 08:15:44;;;;;;;2.67;1.25;;;;;;;12.36;75.46;100050.88;4879161;29;20548;-65
2021/06/26 08:18:11;;;;;;;2.45;1.10;;;;;;;12.31;75.20;100050.81;4886054;29;20035;-65
2021/06/26 08:20:38;;;;;;;5.55;1.42;;;;;;;12.44;74.70;100053.19;4893655;29;20044;-65
2021/06/26 08:23:04;;;;;;;2.42;1.30;;;;;;;12.34;74.96;100060.31;4890597;29;20030;-63
2021/06/26 08:25:30;;;;;;;1.95;1.00;;;;;;;12.18;75.07;100057.38;4895363;29;20095;-65
2021/06/26 08:27:56;;;;;;;1.75;0.93;;;;;;;12.08;75.79;100057.19;4905840;29;20041;-65
2021/06/26 08:30:22;;;;;;;2.08;1.17;;;;;;;12.00;75.29;100066.50;4890925;29;20040;-65
2021/06/26 08:32:49;;;;;;;4.10;1.40;;;;;;;12.19;75.35;100058.16;4889346;29;20029;-65
2021/06/26 08:35:15;;;;;;;1.73;0.90;;;;;;;12.19;75.29;100056.31;4896738;29;20040;-65
2021/06/26 08:37:43;;;;;;;8.35;1.75;;;;;;;12.32;74.73;100054.34;4892578;29;20079;-65
2021/06/26 08:40:11;;;;;;;2.90;1.40;;;;;;;12.30;75.00;100060.81;4897361;29;20036;-65
2021/06/26 08:42:37;;;;;;;1.80;1.30;;;;;;;12.52;74.54;100067.34;4896469;29;20037;-65
2021/06/26 08:45:08;;;;;;;2.75;1.20;;;;;;;12.63;74.17;100068.28;4897490;29;20032;-65
2021/06/26 08:47:34;;;;;;;2.42;1.10;;;;;;;12.68;74.57;100077.31;4895413;29;20459;-66
2021/06/26 08:50:00;;;;;;;3.60;1.40;;;;;;;12.97;73.76;100069.06;4896435;29;20044;-66
2021/06/26 08:52:26;;;;;;;4.68;1.20;;;;;;;12.97;73.34;100068.22;4895857;29;20040;-66
2021/06/26 08:54:54;;;;;;;2.45;1.15;;;;;;;12.72;73.70;100072.22;4896618;29;20033;-66
2021/06/26 08:57:36;;;;;;;3.80;1.50;;;;;;;12.59;74.37;100076.91;4894517;29;20040;-65
2021/06/26 09:00:15;;;;;;;3.03;1.90;;;;;;;12.76;75.03;100077.94;4895263;29;20029;-65
2021/06/26 09:02:40;;;;;;;5.05;1.42;;;;;;;13.06;74.17;100074.03;4894840;29;20100;-65
2021/06/26 09:05:07;;;;;;;1.70;1.20;;;;;;;13.26;73.08;100082.38;4896294;29;20463;-66
2021/06/26 09:07:38;;;;;;;1.88;1.20;;;;;;;12.89;73.07;100085.69;4896283;29;20135;-66
2021/06/26 09:10:23;;;;;;;3.13;1.50;;;;;;;12.79;73.07;100083.66;4896646;29;20056;-66
2021/06/26 09:12:51;;;;;;;3.90;1.58;;;;;;;12.82;74.17;100085.88;4895556;29;20080;-66
2021/06/26 09:15:23;;;;;;;1.95;1.45;;;;;;;13.21;73.21;100076.09;4894339;29;20115;-66
2021/06/26 09:17:48;;;;;;;3.53;1.40;;;;;;;13.35;72.37;100077.38;4893182;29;20505;-66
2021/06/26 09:20:14;;;;;;;5.28;1.70;;;;;;;13.50;72.40;100073.22;4892345;29;20032;-67
2021/06/26 09:22:48;;;;;;;3.60;1.45;;;;;;;13.62;72.15;100071.19;4896556;29;20100;-66
2021/06/26 09:25:25;;;;;;;4.82;2.05;;;;;;;13.43;72.05;100076.94;4896002;29;20040;-66
2021/06/26 09:27:52;;;;;;;2.90;1.83;;;;;;;13.05;73.06;100069.69;4896117;29;20107;-66
2021/06/26 09:30:30;;;;;;;3.58;2.00;;;;;;;13.19;73.44;100081.75;4895336;29;20048;-66
2021/06/26 09:32:55;;;;;;;7.68;1.70;;;;;;;13.12;73.89;100073.81;4896607;29;20064;-66
2021/06/26 09:35:21;;;;;;;4.35;1.80;;;;;;;13.23;72.42;100079.34;4895178;29;20060;-66
2021/06/26 09:37:47;;;;;;;4.43;1.92;;;;;;;13.23;73.38;100079.34;4885645;29;20072;-66
2021/06/26 09:40:13;;;;;;;5.03;1.65;;;;;;;13.18;71.71;100070.09;4885820;29;20502;-67
2021/06/26 09:42:42;;;;;;;3.92;1.70;;;;;;;13.38;72.47;100081.44;4891258;29;20040;-67
2021/06/26 09:45:10;;;;;;;4.65;1.65;;;;;;;13.79;70.68;100083.81;4892262;29;20043;-65
2021/06/26 09:47:47;;;;;;;2.45;1.80;;;;;;;13.74;71.64;100082.69;4887174;29;20541;-66
2021/06/26 09:50:27;;;;;;;3.70;1.65;;;;;;;13.93;69.90;100084.19;4895219;29;20106;-64
2021/06/26 09:53:00;;;;;;;4.35;1.90;;;;;;;14.15;69.39;100082.25;4897584;29;20123;-67
2021/06/26 09:55:37;;;;;;;7.18;2.05;;;;;;;14.12;68.56;100087.34;4892226;29;20060;-66
2021/06/26 09:58:11;;;;;;;4.55;1.90;;;;;;;13.79;68.78;100081.91;4888376;29;20211;-66
2021/06/26 10:00:40;;;;;;;2.42;1.83;;;;;;;13.99;68.51;100088.59;4892327;29;20809;-67
2021/06/26 10:03:06;;;;;;;5.68;2.10;;;;;;;13.84;68.70;100086.56;4894046;29;20041;-67
2021/06/26 10:05:32;;;;;;;6.85;2.00;;;;;;;14.11;69.30;100080.31;4892920;29;20042;-67
2021/06/26 10:08:06;;;;;;;5.05;1.85;;;;;;;14.14;68.21;100082.50;4894852;29;20033;-66
2021/06/26 10:10:32;;;;;;;4.10;2.00;;;;;;;14.15;70.43;100084.13;4889583;29;20036;-65
2021/06/26 10:12:58;;;;;;;4.15;2.05;;;;;;;14.23;67.86;100089.06;4890955;29;20032;-66
2021/06/26 10:15:30;;;;;;;8.00;2.10;;;;;;;13.57;69.11;100084.66;4885591;29;20436;-65
2021/06/26 10:17:56;;;;;;;6.80;2.25;;;;;;;13.44;70.24;100088.56;4887473;29;20047;-65
2021/06/26 10:20:24;;;;;;;2.92;2.08;;;;;;;13.56;71.81;100096.56;4885657;29;22422;-67
2021/06/26 10:23:01;;;;;;;5.07;2.25;;;;;;;13.71;70.04;100101.31;4889021;29;20165;-67
2021/06/26 10:25:37;;;;;;;13.07;2.50;;;;;;;13.76;70.47;100104.91;4889005;29;20041;-67
2021/06/26 10:28:07;;;;;;;4.95;2.53;;;;;;;13.39;70.57;100110.13;4887787;29;20037;-67
2021/06/26 10:30:34;;;;;;;5.10;2.28;;;;;;;13.50;72.33;100101.09;4889193;29;20053;-67
2021/06/26 10:33:03;;;;;;;3.65;2.60;;;;;;;13.28;71.21;100107.28;4881438;29;20035;-68
2021/06/26 10:35:32;;;;;;;4.57;2.70;;;;;;;13.59;70.83;100110.38;4892051;29;20047;-67
2021/06/26 10:38:09;;;;;;;3.10;2.78;;;;;;;13.73;70.28;100112.69;4890350;29;20051;-67
2021/06/26 10:40:36;;;;;;;4.75;3.22;;;;;;;13.68;70.03;100126.19;4884974;29;20041;-65
2021/06/26 10:43:26;;;;;;;4.88;3.08;;;;;;;13.87;69.88;100121.25;4892072;29;20041;-65
2021/06/26 10:46:13;;;;;;;4.10;3.05;;;;;;;13.74;69.71;100122.44;4890465;29;20055;-65
2021/06/26 10:48:53;;;;;;;4.50;2.90;;;;;;;13.95;68.83;100126.19;4882343;29;20850;-65
2021/06/26 10:51:31;;;;;;;7.90;3.10;;;;;;;13.95;67.78;100128.91;4889267;29;20416;-65
2021/06/26 10:54:14;;;;;;;4.18;2.97;;;;;;;14.11;67.85;100134.47;4887338;29;20084;-65
2021/06/26 10:56:41;;;;;;;4.93;3.17;;;;;;;13.93;68.67;100135.63;4884055;29;20048;-64
2021/06/26 10:59:25;;;;;;;3.35;3.05;;;;;;;14.08;68.15;100138.50;4888725;29;20071;-64
2021/06/26 11:02:09;;;;;;;7.18;3.08;;;;;;;13.89;69.07;100135.34;4884188;29;20044;-65
2021/06/26 11:04:44;;;;;;;;;;;;;;;14.11;68.24;100134.47;4887848;29;20562;-63
2021/06/26 11:07:11;;;;;;;4.03;2.72;;;;;;;14.14;66.82;100131.25;4888890;29;19915;-64
2021/06/26 11:09:46;;;;;;;4.20;3.28;;;;;;;13.90;68.33;100137.78;4894326;29;20095;-63
2021/06/26 11:12:17;;;;;;;8.32;3.13;;;;;;;14.01;68.77;100138.72;4890862;29;20033;-64
2021/06/26 11:14:54;;;;;;;6.10;3.17;;;;;;;14.15;68.24;100131.00;4891667;29;20036;-65
2021/06/26 11:17:23;;;;;;;4.47;2.90;;;;;;;14.22;68.08;100138.13;4893908;29;20049;-65
2021/06/26 11:19:50;;;;;;;5.72;2.90;;;;;;;14.03;69.06;100139.28;4889875;29;20059;-65
2021/06/26 11:22:17;;;;;;;9.10;2.83;;;;;;;13.93;68.46;100141.88;4893533;29;20045;-65
2021/06/26 11:24:45;;;;;;;3.95;3.08;;;;;;;14.09;69.05;100145.56;4891654;29;20032;-66
2021/06/26 11:27:17;;;;;;;5.88;2.97;;;;;;;14.08;69.20;100141.22;4888126;29;20128;-65
2021/06/26 11:29:45;;;;;;;3.13;2.70;;;;;;;14.10;68.63;100136.34;4876097;29;20043;-66